KFCH/FCH METAR and TAF weather

Enter ICAO airport designator
Station Type Date Time Source
KFCH METAR 2018/12/10 09:35 UTC NOAA

KFCH 100935Z AUTO 33004KT 4SM BR FEW008 OVC013 09/09 A3024 RMK A01


Station Type Date Time Source
KFCH Decoded METAR 2018/12/10 09:35 UTC NOAA

Fresno-Chandler, CA, United States (KFCH) 36-44N 119-49W
Dec 10, 2018 - 04:35 AM EST / 2018.12.10 0935 UTC
Wind: from the NNW (330 degrees) at 5 MPH (4 KT):0
Visibility: 4 mile(s):0
Sky conditions: overcast
Weather: mist
Temperature: 48 F (9 C)
Dew Point: 48 F (9 C)
Relative Humidity: 100%
Pressure (altimeter): 30.24 in. Hg (1024 hPa)
ob: KFCH 100935Z AUTO 33004KT 4SM BR FEW008 OVC013 09/09 A3024 RMK A01
cycle: 9

Station Type Date Time Source
KFCH TAF UTC NOAA

Error!


Example: see airport list